createdAt,value
2018-03-08T00:01:27.718Z,38.38
2018-03-08T00:04:02.201Z,41.75
2018-03-08T00:06:37.224Z,44.88
2018-03-08T00:09:12.193Z,44.40
2018-03-08T00:11:49.133Z,49.22
2018-03-08T00:14:23.571Z,44.70
2018-03-08T00:16:58.381Z,41.85
2018-03-08T00:19:32.947Z,41.58
2018-03-08T00:22:07.638Z,40.97
2018-03-08T00:24:42.033Z,46.20
2018-03-08T00:27:16.569Z,49.63
2018-03-08T00:29:52.546Z,47.55
2018-03-08T00:32:27.095Z,47.28
2018-03-08T00:35:01.653Z,49.65
2018-03-08T00:37:36.528Z,46.85
2018-03-08T00:40:11.636Z,44.60
2018-03-08T00:42:46.280Z,48.25
2018-03-08T00:45:20.606Z,47.65
2018-03-08T00:47:55.121Z,50.00
2018-03-08T00:50:29.572Z,53.90
2018-03-08T00:53:04.268Z,50.00
2018-03-08T00:55:38.937Z,54.97
2018-03-08T00:58:13.729Z,51.60
2018-03-08T01:00:48.177Z,52.95
2018-03-08T01:03:22.791Z,56.22
2018-03-08T01:05:57.207Z,52.20
2018-03-08T01:08:32.062Z,56.13
2018-03-08T01:11:06.524Z,53.20
2018-03-08T01:13:41.092Z,58.40
2018-03-08T01:16:15.501Z,53.80
2018-03-08T01:18:50.540Z,51.17
2018-03-08T01:21:24.869Z,48.85
2018-03-08T01:23:59.580Z,54.15
2018-03-08T01:26:34.024Z,52.35
2018-03-08T01:29:09.650Z,46.05
2018-03-08T01:31:44.064Z,42.17
2018-03-08T01:34:18.693Z,43.03
2018-03-08T01:36:53.132Z,39.58
2018-03-08T01:39:27.738Z,43.92
2018-03-08T01:42:02.076Z,46.80
2018-03-08T01:44:36.497Z,43.28
2018-03-08T01:47:10.839Z,45.72
2018-03-08T01:49:46.033Z,41.72
2018-03-08T01:52:20.485Z,47.03
2018-03-08T01:54:55.095Z,48.55
2018-03-08T01:57:29.709Z,47.40
2018-03-08T02:00:05.197Z,46.42
2018-03-08T02:02:39.616Z,49.80
2018-03-08T02:05:14.279Z,45.83
2018-03-08T02:07:48.958Z,46.00
2018-03-08T02:10:23.654Z,47.42
2018-03-08T02:12:58.039Z,45.30
2018-03-08T02:15:32.596Z,44.25
2018-03-08T02:18:07.047Z,46.33
2018-03-08T02:20:41.613Z,40.40
2018-03-08T02:23:15.895Z,43.08
2018-03-08T02:25:50.733Z,42.50
2018-03-08T02:28:25.201Z,42.70
2018-03-08T02:30:59.727Z,41.80
2018-03-08T02:33:34.191Z,46.05
2018-03-08T02:36:08.617Z,47.60
2018-03-08T02:38:43.073Z,49.10
2018-03-08T02:41:17.831Z,46.10
2018-03-08T02:43:53.215Z,43.00
2018-03-08T02:46:28.304Z,45.20
2018-03-08T02:49:03.616Z,44.67
2018-03-08T02:51:38.374Z,45.78
2018-03-08T02:54:13.599Z,45.45
2018-03-08T02:56:48.250Z,45.58
2018-03-08T02:59:22.705Z,43.60
2018-03-08T03:01:57.270Z,43.92
2018-03-08T03:04:31.708Z,44.20
2018-03-08T03:07:06.335Z,49.53
2018-03-08T03:09:40.769Z,45.53
2018-03-08T03:12:15.374Z,47.88
2018-03-08T03:14:49.785Z,45.00
2018-03-08T03:17:24.451Z,49.85
2018-03-08T03:19:58.765Z,50.92
2018-03-08T03:22:33.577Z,53.20
2018-03-08T03:25:07.994Z,52.13
2018-03-08T03:27:42.817Z,54.65
2018-03-08T03:30:17.474Z,51.60
2018-03-08T03:32:52.034Z,52.80
2018-03-08T03:35:26.428Z,53.05
2018-03-08T03:38:01.637Z,50.75
2018-03-08T03:40:36.025Z,53.10
2018-03-08T03:43:10.684Z,53.53
2018-03-08T03:45:45.585Z,55.40
2018-03-08T03:48:20.344Z,53.83
2018-03-08T03:50:54.684Z,56.00
2018-03-08T03:53:29.270Z,56.17
2018-03-08T03:56:03.681Z,54.25
2018-03-08T03:58:38.229Z,52.13
2018-03-08T04:01:13.445Z,55.55
2018-03-08T04:03:48.136Z,54.60
2018-03-08T04:06:22.606Z,54.25
2018-03-08T04:08:57.860Z,54.95
2018-03-08T04:11:32.881Z,53.42
2018-03-08T04:14:09.280Z,55.35
2018-03-08T04:16:43.748Z,52.33
2018-03-08T04:19:18.304Z,52.97
2018-03-08T04:21:53.268Z,54.50
2018-03-08T04:24:27.964Z,55.78
2018-03-08T04:27:02.426Z,55.67
2018-03-08T04:29:37.429Z,53.53
2018-03-08T04:32:11.972Z,56.88
2018-03-08T04:34:48.389Z,59.20
2018-03-08T04:37:22.822Z,55.47
2018-03-08T04:39:57.362Z,56.80
2018-03-08T04:42:31.857Z,55.45
2018-03-08T04:45:06.424Z,55.08
2018-03-08T04:47:40.960Z,54.63
2018-03-08T04:50:16.471Z,54.05
2018-03-08T04:52:51.035Z,57.20
2018-03-08T04:55:25.725Z,57.25
2018-03-08T04:58:00.268Z,55.95
2018-03-08T05:00:34.956Z,56.37
2018-03-08T05:03:10.308Z,55.63
2018-03-08T05:05:44.865Z,55.72
2018-03-08T05:08:19.372Z,57.22
2018-03-08T05:10:54.087Z,57.50
2018-03-08T05:13:28.477Z,55.00
2018-03-08T05:16:03.143Z,57.55
2018-03-08T05:18:38.105Z,58.28
2018-03-08T05:21:13.639Z,60.00
2018-03-08T05:23:48.008Z,58.85
2018-03-08T05:26:22.462Z,58.83
2018-03-08T05:28:56.933Z,59.15
2018-03-08T05:31:31.714Z,60.67
2018-03-08T05:34:07.514Z,59.45
2018-03-08T05:36:42.189Z,62.10
2018-03-08T05:39:16.650Z,58.80
2018-03-08T05:41:51.237Z,57.30
2018-03-08T05:44:25.684Z,59.42
2018-03-08T05:47:00.281Z,60.78
2018-03-08T05:49:34.700Z,55.35
2018-03-08T05:52:10.005Z,56.80
2018-03-08T05:54:45.168Z,56.45
2018-03-08T05:57:19.917Z,56.00
2018-03-08T05:59:54.367Z,56.72
2018-03-08T06:02:28.962Z,55.55
2018-03-08T06:05:03.478Z,56.03
2018-03-08T06:07:38.217Z,53.80
2018-03-08T06:10:12.631Z,54.58
2018-03-08T06:12:47.256Z,55.42
2018-03-08T06:15:21.858Z,57.15
2018-03-08T06:17:57.125Z,55.00
2018-03-08T06:20:32.334Z,55.63
2018-03-08T06:23:06.983Z,55.92
2018-03-08T06:25:42.261Z,57.38
2018-03-08T06:28:16.821Z,53.87
2018-03-08T06:30:51.195Z,56.78
2018-03-08T06:33:25.907Z,58.40
2018-03-08T06:36:00.307Z,56.28
2018-03-08T06:38:34.941Z,56.95
2018-03-08T06:41:10.270Z,57.50
2018-03-08T06:43:44.812Z,58.13
2018-03-08T06:46:19.322Z,56.33
2018-03-08T06:48:53.860Z,54.78
2018-03-08T06:51:29.187Z,57.60
2018-03-08T06:54:03.700Z,56.28
2018-03-08T06:56:38.100Z,56.03
2018-03-08T06:59:12.693Z,52.78
2018-03-08T07:01:47.904Z,52.33
2018-03-08T07:04:23.567Z,49.85
2018-03-08T07:06:57.936Z,47.05
2018-03-08T07:09:32.709Z,46.60
2018-03-08T07:12:07.225Z,46.20
2018-03-08T07:14:41.786Z,45.25
2018-03-08T07:17:16.153Z,44.75
2018-03-08T07:19:50.593Z,47.00
2018-03-08T07:22:25.174Z,46.88
2018-03-08T07:24:59.841Z,47.40
2018-03-08T07:27:35.189Z,46.90
2018-03-08T07:30:10.115Z,45.75
2018-03-08T07:32:44.548Z,43.22
2018-03-08T07:35:19.092Z,42.70
2018-03-08T07:37:53.400Z,44.58
2018-03-08T07:40:28.004Z,40.30
2018-03-08T07:43:03.156Z,38.30
2018-03-08T07:45:37.676Z,38.42
2018-03-08T07:48:12.311Z,39.05
2018-03-08T07:50:47.532Z,37.28
2018-03-08T07:53:21.844Z,36.33
2018-03-08T07:55:56.581Z,35.65
2018-03-08T07:58:31.307Z,33.30
2018-03-08T08:01:05.956Z,30.90
2018-03-08T08:03:40.532Z,30.30
2018-03-08T08:09:22.800Z,28.23
2018-03-08T08:11:58.129Z,27.90
2018-03-08T08:14:32.548Z,26.17
2018-03-08T08:17:07.168Z,28.95
2018-03-08T08:19:42.408Z,28.87
2018-03-08T08:22:17.044Z,28.50
2018-03-08T08:24:51.521Z,25.60
2018-03-08T08:27:26.280Z,26.52
2018-03-08T08:30:00.792Z,25.58
2018-03-08T08:32:35.348Z,22.00
2018-03-08T08:35:09.744Z,22.92
2018-03-08T08:37:44.800Z,22.95
2018-03-08T08:40:19.228Z,20.90
2018-03-08T08:42:53.846Z,22.77
2018-03-08T08:45:28.293Z,21.12
2018-03-08T08:48:02.883Z,21.15
2018-03-08T08:50:37.350Z,18.90
2018-03-08T08:53:11.924Z,19.58
2018-03-08T08:55:46.349Z,19.42
2018-03-08T08:58:20.974Z,19.27
2018-03-08T09:00:56.010Z,17.95
2018-03-08T09:03:30.833Z,17.65
2018-03-08T09:06:05.113Z,17.65
2018-03-08T09:08:39.877Z,17.98
2018-03-08T09:11:14.316Z,18.75
2018-03-08T09:13:48.939Z,20.60
2018-03-08T09:16:23.372Z,20.30
2018-03-08T09:18:58.582Z,19.90
2018-03-08T09:21:33.173Z,22.23
2018-03-08T09:24:07.561Z,19.83
2018-03-08T09:26:41.876Z,19.40
2018-03-08T09:29:16.318Z,19.42
2018-03-08T09:31:50.813Z,20.73
2018-03-08T09:34:25.416Z,21.50
2018-03-08T09:37:00.611Z,20.10
2018-03-08T09:39:35.280Z,21.77
2018-03-08T09:42:09.698Z,20.70
2018-03-08T09:44:44.333Z,22.13
2018-03-08T09:47:19.673Z,23.52
2018-03-08T09:49:54.402Z,24.00
2018-03-08T09:52:28.787Z,24.02
2018-03-08T09:55:03.416Z,26.23
2018-03-08T09:57:37.733Z,26.62
2018-03-08T10:00:12.130Z,25.02
2018-03-08T10:02:46.428Z,28.23
2018-03-08T10:05:20.951Z,26.85
2018-03-08T10:07:55.374Z,29.35
2018-03-08T10:10:29.992Z,27.45
2018-03-08T10:13:04.837Z,27.83
2018-03-08T10:15:39.642Z,28.62
2018-03-08T10:18:13.992Z,28.30
2018-03-08T10:20:48.697Z,28.00
2018-03-08T10:23:23.193Z,26.33
2018-03-08T10:25:57.834Z,27.10
2018-03-08T10:28:32.988Z,27.80
2018-03-08T10:31:07.703Z,26.40
2018-03-08T10:33:42.213Z,24.10
2018-03-08T10:36:16.946Z,24.48
2018-03-08T10:38:52.084Z,25.23
2018-03-08T10:44:01.544Z,25.23
2018-03-08T10:46:36.268Z,23.58
2018-03-08T10:49:11.299Z,23.58
2018-03-08T10:51:45.925Z,23.45
2018-03-08T10:54:20.421Z,23.27
2018-03-08T10:56:55.176Z,23.35
2018-03-08T10:59:29.600Z,23.25
2018-03-08T11:05:09.782Z,25.27
2018-03-08T11:07:44.403Z,24.87
2018-03-08T11:10:18.821Z,25.75
2018-03-08T11:12:53.453Z,22.45
2018-03-08T11:15:27.949Z,23.80
2018-03-08T11:18:02.488Z,22.15
2018-03-08T11:20:37.034Z,23.30
2018-03-08T11:23:11.749Z,24.35
2018-03-08T11:25:47.076Z,22.73
2018-03-08T11:28:21.764Z,23.98
2018-03-08T11:30:56.324Z,22.90
2018-03-08T11:33:30.884Z,24.17
2018-03-08T11:36:05.248Z,23.25
2018-03-08T11:38:39.705Z,25.48
2018-03-08T11:41:14.936Z,23.83
2018-03-08T11:43:49.463Z,26.55
2018-03-08T11:46:23.871Z,25.40
2018-03-08T11:49:00.354Z,23.23
2018-03-08T11:51:33.233Z,22.65
2018-03-08T11:54:08.481Z,22.20
2018-03-08T11:56:43.937Z,22.40
2018-03-08T11:59:18.461Z,22.70
2018-03-08T12:01:53.784Z,21.25
2018-03-08T12:04:29.093Z,21.90
2018-03-08T12:07:03.460Z,20.12
2018-03-08T12:09:37.887Z,21.75
2018-03-08T12:12:12.271Z,21.02
2018-03-08T12:14:46.813Z,21.75
2018-03-08T12:17:21.776Z,21.08
2018-03-08T12:19:56.502Z,21.33
2018-03-08T12:22:31.063Z,19.15
2018-03-08T12:25:05.544Z,19.00
2018-03-08T12:27:39.984Z,20.37
2018-03-08T12:30:14.798Z,19.58
2018-03-08T12:32:49.197Z,18.92
2018-03-08T12:35:23.973Z,19.33
2018-03-08T12:37:58.533Z,18.73
2018-03-08T12:40:33.282Z,19.48
2018-03-08T12:43:08.516Z,19.00
2018-03-08T12:45:43.352Z,18.77
2018-03-08T12:48:18.689Z,18.20
2018-03-08T12:50:53.576Z,18.50
2018-03-08T12:53:28.036Z,19.40
2018-03-08T12:56:02.698Z,18.52
2018-03-08T12:58:37.609Z,19.62
2018-03-08T13:01:12.333Z,16.95
2018-03-08T13:03:46.839Z,17.52
2018-03-08T13:06:21.501Z,17.23
2018-03-08T13:08:56.011Z,15.90
2018-03-08T13:11:30.568Z,16.52
2018-03-08T13:14:05.456Z,15.32
2018-03-08T13:16:40.257Z,15.45
2018-03-08T13:19:14.507Z,13.95
2018-03-08T13:21:49.742Z,13.57
2018-03-08T13:24:24.242Z,12.80
2018-03-08T13:26:58.777Z,12.68
2018-03-08T13:29:33.639Z,12.37
2018-03-08T13:32:09.073Z,12.60
2018-03-08T13:34:43.528Z,11.10
2018-03-08T13:37:18.053Z,9.38
2018-03-08T13:39:52.456Z,10.95
2018-03-08T13:42:27.782Z,10.25
2018-03-08T13:45:02.177Z,11.25
2018-03-08T13:47:36.825Z,9.85
2018-03-08T13:50:11.229Z,10.93
2018-03-08T13:52:46.073Z,12.57
2018-03-08T13:55:20.573Z,9.55
2018-03-08T13:57:55.317Z,9.65
2018-03-08T14:00:30.652Z,10.10
2018-03-08T14:03:05.385Z,10.38
2018-03-08T14:05:40.531Z,8.90
2018-03-08T14:08:15.052Z,9.15
2018-03-08T14:10:50.390Z,8.75
2018-03-08T14:13:24.917Z,9.25
2018-03-08T14:15:59.357Z,8.60
2018-03-08T14:18:34.573Z,8.82
2018-03-08T14:21:08.933Z,10.00
2018-03-08T14:23:44.541Z,9.43
2018-03-08T14:26:18.996Z,9.25
2018-03-08T14:28:53.593Z,9.35
2018-03-08T14:31:28.820Z,9.55
2018-03-08T14:34:03.452Z,11.05
2018-03-08T14:36:37.880Z,10.65
2018-03-08T14:39:13.133Z,14.27
2018-03-08T14:41:47.520Z,106.15
2018-03-08T14:44:21.966Z,14.20
2018-03-08T14:46:56.516Z,10.57
2018-03-08T14:49:32.511Z,10.65
2018-03-08T14:52:07.004Z,10.35
2018-03-08T14:54:41.390Z,10.32
2018-03-08T14:57:15.733Z,23.38
2018-03-08T14:59:50.321Z,10.15
2018-03-08T15:02:24.881Z,8.90
2018-03-08T15:04:59.595Z,9.70
2018-03-08T15:07:34.173Z,7.72
2018-03-08T15:10:08.830Z,7.60
2018-03-08T15:12:43.433Z,7.65
2018-03-08T15:15:17.982Z,7.18
2018-03-08T15:17:52.456Z,6.70
2018-03-08T15:20:26.917Z,6.53
2018-03-08T15:23:01.309Z,5.95
2018-03-08T15:25:35.769Z,6.68
2018-03-08T15:28:10.345Z,6.87
2018-03-08T15:30:45.626Z,6.95
2018-03-08T15:33:20.966Z,5.90
2018-03-08T15:35:56.331Z,6.97
2018-03-08T15:38:31.446Z,6.55
2018-03-08T15:41:06.178Z,5.28
2018-03-08T15:43:40.825Z,8.15
2018-03-08T15:46:15.231Z,5.95
2018-03-08T15:48:49.821Z,5.78
2018-03-08T15:51:24.656Z,6.28
2018-03-08T15:54:00.545Z,5.78
2018-03-08T15:56:35.175Z,5.55
2018-03-08T15:59:09.628Z,5.10
2018-03-08T16:01:44.209Z,5.12
2018-03-08T16:04:18.665Z,5.82
2018-03-08T16:10:41.116Z,5.55
2018-03-08T16:13:15.629Z,6.60
2018-03-08T16:15:50.014Z,4.87
2018-03-08T16:18:24.717Z,4.55
2018-03-08T16:20:59.965Z,5.70
2018-03-08T16:23:34.540Z,4.45
2018-03-08T16:26:09.044Z,4.43
2018-03-08T16:28:43.483Z,5.70
2018-03-08T16:31:18.033Z,5.20
2018-03-08T16:33:52.592Z,5.18
2018-03-08T16:36:26.884Z,5.25
2018-03-08T16:39:01.483Z,4.60
2018-03-08T16:41:36.093Z,5.40
2018-03-08T16:44:11.533Z,5.57
2018-03-08T16:46:45.944Z,5.22
2018-03-08T16:49:20.356Z,5.90
2018-03-08T16:51:54.625Z,6.12
2018-03-08T16:54:29.135Z,5.12
2018-03-08T16:57:03.668Z,5.30
2018-03-08T16:59:38.414Z,5.50
2018-03-08T17:02:12.963Z,5.28
2018-03-08T17:04:48.195Z,6.37
2018-03-08T17:07:23.367Z,4.97
2018-03-08T17:09:57.969Z,6.85
2018-03-08T17:12:33.017Z,5.57
2018-03-08T17:15:07.499Z,5.55
2018-03-08T17:17:42.051Z,7.05
2018-03-08T17:20:16.599Z,6.22
2018-03-08T17:22:51.927Z,7.57
2018-03-08T17:25:26.677Z,6.10
2018-03-08T17:28:02.539Z,6.82
2018-03-08T17:30:37.152Z,5.97
2018-03-08T17:33:11.487Z,6.15
2018-03-08T17:35:45.921Z,5.70
2018-03-08T17:38:20.212Z,5.50
2018-03-08T17:40:55.405Z,5.72
2018-03-08T17:43:29.786Z,6.85
2018-03-08T17:46:05.720Z,6.20
2018-03-08T17:48:40.076Z,5.97
2018-03-08T17:51:14.583Z,6.25
2018-03-08T17:53:49.690Z,6.37
2018-03-08T17:56:24.220Z,6.53
2018-03-08T17:58:58.813Z,8.00
2018-03-08T18:01:33.468Z,9.27
2018-03-08T18:04:07.712Z,6.47
2018-03-08T18:06:42.924Z,6.70
2018-03-08T18:09:17.222Z,8.88
2018-03-08T18:11:51.812Z,7.10
2018-03-08T18:14:26.632Z,7.15
2018-03-08T18:17:01.235Z,9.10
2018-03-08T18:19:35.879Z,9.55
2018-03-08T18:22:10.271Z,7.82
2018-03-08T18:24:44.709Z,8.38
2018-03-08T18:27:19.299Z,7.20
2018-03-08T18:29:53.734Z,6.80
2018-03-08T18:32:28.256Z,8.38
2018-03-08T18:35:02.501Z,8.65
2018-03-08T18:37:37.008Z,9.95
2018-03-08T18:40:11.346Z,7.78
2018-03-08T18:42:45.845Z,9.00
2018-03-08T18:45:20.978Z,9.98
2018-03-08T18:47:55.734Z,10.75
2018-03-08T18:50:30.207Z,11.23
2018-03-08T18:53:04.759Z,12.75
2018-03-08T18:55:39.299Z,11.20
2018-03-08T18:58:26.709Z,11.02
2018-03-08T19:01:01.009Z,9.05
2018-03-08T19:03:35.544Z,9.15
2018-03-08T19:06:09.864Z,9.13
2018-03-08T19:08:44.389Z,10.57
2018-03-08T19:11:19.012Z,10.25
2018-03-08T19:13:54.084Z,9.50
2018-03-08T19:16:28.609Z,8.60
2018-03-08T19:19:03.060Z,9.82
2018-03-08T19:21:37.503Z,9.43
2018-03-08T19:24:11.935Z,9.63
2018-03-08T19:26:46.584Z,9.77
2018-03-08T19:29:21.393Z,11.07
2018-03-08T19:31:56.734Z,9.35
2018-03-08T19:34:31.257Z,10.73
2018-03-08T19:37:06.058Z,10.32
2018-03-08T19:39:40.710Z,10.88
2018-03-08T19:42:14.993Z,12.82
2018-03-08T19:44:49.491Z,9.90
2018-03-08T19:47:23.844Z,10.15
2018-03-08T19:49:58.373Z,9.65
2018-03-08T19:52:33.135Z,9.80
2018-03-08T19:55:08.265Z,9.60
2018-03-08T19:57:42.660Z,16.90
2018-03-08T20:00:17.329Z,10.15
2018-03-08T20:02:51.688Z,8.82
2018-03-08T20:05:26.964Z,8.55
2018-03-08T20:08:01.315Z,8.35
2018-03-08T20:10:35.812Z,9.10
2018-03-08T20:13:10.217Z,8.43
2018-03-08T20:15:45.124Z,7.57
2018-03-08T20:18:19.554Z,7.43
2018-03-08T20:20:53.998Z,9.85
2018-03-08T20:23:28.512Z,9.15
2018-03-08T20:26:03.026Z,7.40
2018-03-08T20:28:37.340Z,6.80
2018-03-08T20:31:11.732Z,7.18
2018-03-08T20:33:47.134Z,5.40
2018-03-08T20:36:21.964Z,6.35
2018-03-08T20:38:56.506Z,7.87
2018-03-08T20:41:31.208Z,6.00
2018-03-08T20:44:05.632Z,5.32
2018-03-08T20:46:40.264Z,6.87
2018-03-08T20:49:14.612Z,7.30
2018-03-08T20:51:49.307Z,5.03
2018-03-08T20:54:23.721Z,9.57
2018-03-08T20:56:58.347Z,5.18
2018-03-08T20:59:32.777Z,4.35
2018-03-08T21:02:07.596Z,4.37
2018-03-08T21:04:42.050Z,3.78
2018-03-08T21:07:16.708Z,3.62
2018-03-08T21:09:51.153Z,3.83
2018-03-08T21:12:25.521Z,3.50
2018-03-08T21:15:00.120Z,4.03
2018-03-08T21:17:34.753Z,3.45
2018-03-08T21:20:09.202Z,3.42
2018-03-08T21:22:43.784Z,3.60
2018-03-08T21:25:18.188Z,3.90
2018-03-08T21:27:53.664Z,3.55
2018-03-08T21:30:28.099Z,4.45
2018-03-08T21:33:02.708Z,3.33
2018-03-08T21:35:38.333Z,3.35
2018-03-08T21:38:12.975Z,2.70
2018-03-08T21:40:48.882Z,3.00
2018-03-08T21:43:23.470Z,3.67
2018-03-08T21:45:58.131Z,3.05
2018-03-08T21:48:32.705Z,2.58
2018-03-08T21:51:07.124Z,3.87
2018-03-08T21:53:41.750Z,3.62
2018-03-08T21:56:16.263Z,3.97
2018-03-08T21:58:50.797Z,5.18
2018-03-08T22:01:25.736Z,5.20
2018-03-08T22:04:00.475Z,5.68
2018-03-08T22:06:34.949Z,6.40
2018-03-08T22:09:09.524Z,5.20
2018-03-08T22:11:44.055Z,5.28
2018-03-08T22:14:18.528Z,5.68
2018-03-08T22:16:53.891Z,5.25
2018-03-08T22:19:28.413Z,5.97
2018-03-08T22:22:03.485Z,5.40
2018-03-08T22:24:37.929Z,5.50
2018-03-08T22:27:13.041Z,4.95
2018-03-08T22:29:47.540Z,5.05
2018-03-08T22:32:22.885Z,5.70
2018-03-08T22:34:57.396Z,5.65
2018-03-08T22:37:32.563Z,7.15
2018-03-08T22:40:07.888Z,5.95
2018-03-08T22:42:42.972Z,6.68
2018-03-08T22:45:17.536Z,7.30
2018-03-08T22:47:51.853Z,8.65
2018-03-08T22:50:27.210Z,6.95
2018-03-08T22:53:01.677Z,8.32
2018-03-08T22:55:36.453Z,10.57
2018-03-08T22:58:10.957Z,8.35
2018-03-08T23:00:45.497Z,8.40
2018-03-08T23:03:26.149Z,8.63
2018-03-08T23:06:00.684Z,9.93
2018-03-08T23:08:35.300Z,9.15
2018-03-08T23:11:10.145Z,9.45
2018-03-08T23:13:44.689Z,8.43
2018-03-08T23:16:19.382Z,9.38
2018-03-08T23:18:53.885Z,9.95
2018-03-08T23:21:29.671Z,10.85
2018-03-08T23:24:04.657Z,13.52
2018-03-08T23:26:39.737Z,11.80
2018-03-08T23:29:14.183Z,12.75
2018-03-08T23:31:49.394Z,11.68
2018-03-08T23:34:23.839Z,11.52
2018-03-08T23:36:59.263Z,12.55
2018-03-08T23:39:33.732Z,11.00
2018-03-08T23:42:08.291Z,11.57
2018-03-08T23:44:42.785Z,12.43
2018-03-08T23:47:17.869Z,12.27
2018-03-08T23:49:52.250Z,13.20
2018-03-08T23:52:26.603Z,13.57
2018-03-08T23:55:01.004Z,14.52
2018-03-08T23:57:35.664Z,13.20
